createdAt,value
2022-10-27T00:01:57.225Z,18.08
2022-10-27T00:04:59.735Z,19.60
2022-10-27T00:08:02.103Z,19.73
2022-10-27T00:11:06.596Z,19.50
2022-10-27T00:14:09.036Z,20.33
2022-10-27T00:17:11.557Z,18.33
2022-10-27T00:20:13.966Z,17.90
2022-10-27T00:23:16.461Z,18.17
2022-10-27T00:26:20.962Z,20.10
2022-10-27T00:29:23.559Z,22.67
2022-10-27T00:32:26.032Z,18.25
2022-10-27T00:35:28.694Z,18.87
2022-10-27T00:38:30.910Z,19.10
2022-10-27T00:41:36.648Z,21.73
2022-10-27T00:44:41.637Z,19.95
2022-10-27T00:47:44.197Z,20.85
2022-10-27T00:50:46.989Z,19.85
2022-10-27T00:53:50.010Z,20.33
2022-10-27T00:56:53.920Z,23.10
2022-10-27T00:59:58.186Z,20.05
2022-10-27T01:03:00.468Z,22.05
2022-10-27T01:06:03.306Z,19.98
2022-10-27T01:09:06.404Z,18.65
2022-10-27T01:12:09.507Z,22.30
2022-10-27T01:15:12.438Z,22.17
2022-10-27T01:18:27.206Z,21.20
2022-10-27T01:21:38.554Z,20.77
2022-10-27T01:25:10.465Z,21.75
2022-10-27T01:28:30.744Z,17.20
2022-10-27T01:31:41.744Z,18.98
2022-10-27T01:34:50.045Z,21.27
2022-10-27T01:38:10.408Z,22.35
2022-10-27T01:41:22.543Z,19.92
2022-10-27T01:44:31.845Z,21.52
2022-10-27T01:47:34.400Z,20.60
2022-10-27T01:50:56.845Z,19.27
2022-10-27T01:54:03.673Z,22.83
2022-10-27T01:57:27.430Z,22.77
2022-10-27T02:00:33.631Z,19.60
2022-10-27T02:03:43.263Z,22.33
2022-10-27T02:07:13.973Z,22.60
2022-10-27T02:10:22.990Z,22.42
2022-10-27T02:13:25.631Z,21.17
2022-10-27T02:16:31.748Z,21.35
2022-10-27T02:19:36.970Z,21.70
2022-10-27T02:22:41.903Z,21.42
2022-10-27T02:26:00.426Z,24.63
2022-10-27T02:29:09.754Z,22.23
2022-10-27T02:32:16.748Z,21.77
2022-10-27T02:35:20.146Z,21.58
2022-10-27T02:38:22.497Z,21.50
2022-10-27T02:41:25.119Z,24.12
2022-10-27T02:44:27.358Z,28.12
2022-10-27T02:47:29.949Z,25.90
2022-10-27T02:50:32.311Z,21.92
2022-10-27T02:53:34.911Z,21.58
2022-10-27T02:56:37.196Z,21.23
2022-10-27T02:59:39.689Z,25.55
2022-10-27T03:02:41.881Z,22.95
2022-10-27T03:05:45.599Z,22.23
2022-10-27T03:08:50.572Z,20.52
2022-10-27T03:11:53.177Z,24.12
2022-10-27T03:14:55.410Z,21.58
2022-10-27T03:17:57.994Z,21.83
2022-10-27T03:21:00.190Z,33.70
2022-10-27T03:24:02.813Z,30.25
2022-10-27T03:27:05.093Z,20.80
2022-10-27T03:30:15.820Z,22.35
2022-10-27T03:33:18.115Z,21.77
2022-10-27T03:36:20.670Z,27.20
2022-10-27T03:39:22.911Z,31.52
2022-10-27T03:42:25.793Z,29.27
2022-10-27T03:45:28.578Z,26.83
2022-10-27T03:48:31.117Z,27.13
2022-10-27T03:51:33.329Z,26.37
2022-10-27T03:54:35.866Z,26.65
2022-10-27T03:57:38.283Z,26.60
2022-10-27T04:00:41.588Z,29.40
2022-10-27T04:03:44.074Z,26.77
2022-10-27T04:06:46.554Z,31.02
2022-10-27T04:09:49.118Z,33.15
2022-10-27T04:12:53.722Z,32.00
2022-10-27T04:15:59.834Z,28.08
2022-10-27T04:19:02.041Z,28.98
2022-10-27T04:22:04.542Z,29.37
2022-10-27T04:25:07.506Z,29.73
2022-10-27T04:28:10.144Z,27.25
2022-10-27T04:31:12.350Z,26.73
2022-10-27T04:34:14.883Z,31.23
2022-10-27T04:37:17.142Z,30.37
2022-10-27T04:40:19.627Z,31.10
2022-10-27T04:43:21.863Z,26.58
2022-10-27T04:46:24.393Z,28.25
2022-10-27T04:49:26.600Z,28.52
2022-10-27T04:52:29.274Z,27.02
2022-10-27T04:55:33.131Z,29.55
2022-10-27T04:58:35.712Z,29.10
2022-10-27T05:01:39.498Z,26.90
2022-10-27T05:04:42.152Z,26.30
2022-10-27T05:07:51.567Z,28.15
2022-10-27T05:10:54.079Z,24.48
2022-10-27T05:13:56.289Z,27.80
2022-10-27T05:16:58.898Z,24.37
2022-10-27T05:20:01.160Z,38.20
2022-10-27T05:23:03.687Z,23.50
2022-10-27T05:26:09.547Z,24.50
2022-10-27T05:29:30.124Z,23.05
2022-10-27T05:32:34.848Z,27.77
2022-10-27T05:35:37.394Z,25.90
2022-10-27T05:38:39.627Z,26.23
2022-10-27T05:41:42.429Z,28.75
2022-10-27T05:44:44.808Z,26.42
2022-10-27T05:47:47.454Z,26.17
2022-10-27T05:50:54.027Z,29.02
2022-10-27T05:53:57.958Z,23.55
2022-10-27T05:57:00.319Z,33.00
2022-10-27T06:00:03.489Z,28.77
2022-10-27T06:03:19.966Z,28.55
2022-10-27T06:06:22.479Z,26.25
2022-10-27T06:09:24.711Z,23.12
2022-10-27T06:12:27.166Z,28.40
2022-10-27T06:15:30.409Z,25.92
2022-10-27T06:18:33.572Z,28.15
2022-10-27T06:21:35.799Z,25.58
2022-10-27T06:24:38.391Z,24.90
2022-10-27T06:27:40.788Z,25.10
2022-10-27T06:30:46.118Z,25.73
2022-10-27T06:33:48.456Z,28.83
2022-10-27T06:36:50.932Z,30.00
2022-10-27T06:39:57.337Z,32.15
2022-10-27T06:43:08.407Z,27.25
2022-10-27T06:46:10.922Z,29.83
2022-10-27T06:49:15.520Z,31.37
2022-10-27T06:52:19.959Z,32.47
2022-10-27T06:55:22.589Z,32.92
2022-10-27T06:58:24.907Z,33.38
2022-10-27T07:01:27.903Z,29.10
2022-10-27T07:04:30.673Z,31.75
2022-10-27T07:07:33.634Z,29.17
2022-10-27T07:10:35.963Z,26.70
2022-10-27T07:13:38.565Z,26.45
2022-10-27T07:16:40.942Z,25.75
2022-10-27T07:19:43.436Z,23.58
2022-10-27T07:22:45.686Z,28.27
2022-10-27T07:25:49.450Z,23.87
2022-10-27T07:28:51.789Z,23.58
2022-10-27T07:31:54.313Z,24.35
2022-10-27T07:34:59.323Z,23.05
2022-10-27T07:38:02.139Z,22.17
2022-10-27T07:41:04.712Z,25.42
2022-10-27T07:44:07.257Z,21.83
2022-10-27T07:47:09.497Z,25.35
2022-10-27T07:50:13.234Z,22.02
2022-10-27T07:53:16.327Z,25.17
2022-10-27T07:56:19.175Z,23.77
2022-10-27T07:59:21.489Z,24.83
2022-10-27T08:02:24.090Z,21.85
2022-10-27T08:05:27.130Z,24.05
2022-10-27T08:08:30.153Z,29.00
2022-10-27T08:11:32.742Z,28.90
2022-10-27T08:14:35.010Z,24.12
2022-10-27T08:17:39.232Z,24.08
2022-10-27T08:23:45.318Z,22.30
2022-10-27T08:26:49.372Z,29.65
2022-10-27T08:29:51.986Z,30.10
2022-10-27T08:32:59.397Z,27.02
2022-10-27T08:36:02.688Z,28.35
2022-10-27T08:39:12.807Z,27.67
2022-10-27T08:42:47.338Z,25.67
2022-10-27T08:46:02.033Z,25.12
2022-10-27T08:52:55.190Z,28.90
2022-10-27T08:56:04.492Z,48.90
2022-10-27T08:59:14.501Z,28.33
2022-10-27T09:02:50.677Z,25.58
2022-10-27T09:06:17.832Z,27.33
2022-10-27T09:09:50.763Z,29.35
2022-10-27T09:13:07.943Z,31.80
2022-10-27T09:16:16.752Z,29.25
2022-10-27T09:19:34.389Z,27.20
2022-10-27T09:22:41.663Z,31.48
2022-10-27T09:25:47.708Z,29.67
2022-10-27T09:28:52.290Z,31.87
2022-10-27T09:32:06.701Z,31.55
2022-10-27T09:35:16.498Z,32.05
2022-10-27T09:38:25.857Z,34.92
2022-10-27T09:41:28.482Z,36.63
2022-10-27T09:44:30.739Z,29.80
2022-10-27T09:47:39.831Z,33.08
2022-10-27T09:51:12.870Z,32.22
2022-10-27T09:54:32.687Z,32.63
2022-10-27T09:57:38.775Z,30.98
2022-10-27T10:00:42.670Z,33.33
2022-10-27T10:07:01.449Z,30.90
2022-10-27T10:10:27.208Z,30.37
2022-10-27T10:13:34.266Z,36.60
2022-10-27T10:16:36.863Z,30.23
2022-10-27T10:19:46.465Z,41.15
2022-10-27T10:22:51.199Z,40.78
2022-10-27T10:25:58.217Z,29.58
2022-10-27T10:29:18.041Z,30.10
2022-10-27T10:32:29.924Z,32.20
2022-10-27T10:35:42.746Z,30.55
2022-10-27T10:38:50.848Z,29.80
2022-10-27T10:42:15.853Z,33.63
2022-10-27T10:45:23.486Z,30.88
2022-10-27T10:48:47.207Z,32.17
2022-10-27T10:51:58.153Z,28.40
2022-10-27T10:55:16.676Z,33.45
2022-10-27T10:58:21.720Z,29.77
2022-10-27T11:01:39.914Z,35.22
2022-10-27T11:04:44.563Z,29.05
2022-10-27T11:07:49.094Z,33.58
2022-10-27T11:10:55.835Z,28.38
2022-10-27T11:14:07.824Z,31.70
2022-10-27T11:17:10.852Z,31.85
2022-10-27T11:20:21.958Z,30.25
2022-10-27T11:23:49.352Z,28.42
2022-10-27T11:27:13.172Z,31.65
2022-10-27T11:30:24.743Z,32.60
2022-10-27T11:33:56.424Z,32.10
2022-10-27T11:37:29.723Z,31.92
2022-10-27T11:40:51.261Z,30.40
2022-10-27T11:44:08.829Z,29.95
2022-10-27T11:47:20.929Z,30.80
2022-10-27T11:50:46.204Z,33.97
2022-10-27T11:53:51.820Z,29.25
2022-10-27T11:57:38.659Z,31.80
2022-10-27T12:01:00.472Z,34.30
2022-10-27T12:04:32.147Z,36.88
2022-10-27T12:08:07.913Z,30.08
2022-10-27T12:11:20.658Z,25.65
2022-10-27T12:14:53.619Z,30.48
2022-10-27T12:18:13.072Z,30.90
2022-10-27T12:21:23.478Z,48.03
2022-10-27T12:24:35.548Z,33.30
2022-10-27T12:27:41.854Z,29.85
2022-10-27T12:30:47.965Z,34.22
2022-10-27T12:34:03.280Z,31.35
2022-10-27T12:37:16.427Z,30.08
2022-10-27T12:40:38.575Z,30.55
2022-10-27T12:44:20.748Z,33.08
2022-10-27T12:47:36.019Z,26.35
2022-10-27T12:51:17.339Z,30.62
2022-10-27T12:54:44.142Z,31.58
2022-10-27T12:57:53.159Z,32.42
2022-10-27T13:01:02.582Z,34.40
2022-10-27T13:04:33.305Z,38.20
2022-10-27T13:07:57.296Z,38.75
2022-10-27T13:11:25.094Z,47.83
2022-10-27T13:15:01.412Z,54.50
2022-10-27T13:18:37.258Z,40.35
2022-10-27T13:21:52.073Z,42.20
2022-10-27T13:25:16.251Z,39.30
2022-10-27T13:28:42.039Z,45.90
2022-10-27T13:31:44.684Z,36.22
2022-10-27T13:35:02.470Z,38.60
2022-10-27T13:38:21.314Z,41.30
2022-10-27T13:42:01.115Z,41.17
2022-10-27T13:45:30.026Z,36.30
2022-10-27T13:48:34.239Z,35.03
2022-10-27T13:51:49.049Z,38.05
2022-10-27T13:55:03.997Z,34.90
2022-10-27T13:58:18.694Z,35.88
2022-10-27T14:01:27.243Z,32.35
2022-10-27T14:04:46.970Z,33.80
2022-10-27T14:07:49.823Z,32.08
2022-10-27T14:10:54.938Z,31.97
2022-10-27T14:14:05.458Z,31.70
2022-10-27T14:17:21.117Z,38.40
2022-10-27T14:20:32.055Z,35.25
2022-10-27T14:23:34.740Z,33.15
2022-10-27T14:26:37.991Z,31.10
2022-10-27T14:29:40.612Z,49.63
2022-10-27T14:32:42.944Z,33.70
2022-10-27T14:35:45.637Z,28.12
2022-10-27T14:39:04.882Z,31.92
2022-10-27T14:42:19.672Z,31.77
2022-10-27T14:45:23.912Z,29.12
2022-10-27T14:48:30.431Z,29.02
2022-10-27T14:51:38.162Z,29.12
2022-10-27T14:54:47.308Z,30.33
2022-10-27T14:57:51.556Z,29.27
2022-10-27T15:00:54.767Z,38.30
2022-10-27T15:03:58.497Z,35.40
2022-10-27T15:07:03.032Z,32.92
2022-10-27T15:10:06.100Z,30.73
2022-10-27T15:13:18.208Z,27.83
2022-10-27T15:16:24.608Z,25.40
2022-10-27T15:19:27.615Z,25.30
2022-10-27T15:22:30.149Z,27.73
2022-10-27T15:25:33.176Z,26.58
2022-10-27T15:28:36.964Z,24.12
2022-10-27T15:31:43.299Z,24.92
2022-10-27T15:34:45.646Z,25.70
2022-10-27T15:37:48.159Z,24.27
2022-10-27T15:40:52.000Z,27.17
2022-10-27T15:44:03.629Z,27.13
2022-10-27T15:47:42.204Z,22.70
2022-10-27T15:51:00.407Z,28.52
2022-10-27T15:54:02.881Z,24.60
2022-10-27T15:57:33.509Z,21.83
2022-10-27T16:00:35.779Z,20.62
2022-10-27T16:03:56.269Z,20.85
2022-10-27T16:07:29.385Z,21.50
2022-10-27T16:10:33.555Z,23.30
2022-10-27T16:16:38.702Z,24.60
2022-10-27T16:19:42.171Z,23.75
2022-10-27T16:22:45.924Z,26.52
2022-10-27T16:25:49.175Z,26.40
2022-10-27T16:28:55.828Z,28.73
2022-10-27T16:32:02.517Z,29.23
2022-10-27T16:35:05.414Z,28.02
2022-10-27T16:38:10.287Z,27.35
2022-10-27T16:41:27.426Z,25.95
2022-10-27T16:44:29.735Z,26.45
2022-10-27T16:47:32.327Z,28.65
2022-10-27T16:50:37.285Z,29.75
2022-10-27T16:53:55.832Z,26.80
2022-10-27T16:56:58.358Z,29.15
2022-10-27T17:00:00.640Z,28.17
2022-10-27T17:03:03.228Z,26.20
2022-10-27T17:06:06.052Z,25.77
2022-10-27T17:09:09.487Z,25.60
2022-10-27T17:12:11.715Z,28.20
2022-10-27T17:15:14.333Z,25.52
2022-10-27T17:18:16.585Z,28.60
2022-10-27T17:21:19.166Z,26.00
2022-10-27T17:24:21.478Z,32.28
2022-10-27T17:27:23.988Z,33.25
2022-10-27T17:30:26.398Z,31.70
2022-10-27T17:33:29.241Z,29.35
2022-10-27T17:36:31.544Z,26.95
2022-10-27T17:39:34.132Z,25.20
2022-10-27T17:42:36.503Z,28.35
2022-10-27T17:45:39.194Z,28.40
2022-10-27T17:48:44.955Z,27.08
2022-10-27T17:51:50.332Z,29.65
2022-10-27T17:54:52.845Z,35.30
2022-10-27T17:57:55.533Z,27.48
2022-10-27T18:01:17.567Z,28.40
2022-10-27T18:04:21.254Z,28.62
2022-10-27T18:07:24.540Z,25.85
2022-10-27T18:10:27.088Z,28.33
2022-10-27T18:13:34.712Z,25.83
2022-10-27T18:16:39.723Z,26.52
2022-10-27T18:19:41.986Z,26.30
2022-10-27T18:22:44.713Z,26.98
2022-10-27T18:25:47.034Z,25.58
2022-10-27T18:28:50.079Z,27.27
2022-10-27T18:31:52.323Z,23.23
2022-10-27T18:34:54.996Z,26.98
2022-10-27T18:37:58.909Z,23.95
2022-10-27T18:41:05.065Z,27.23
2022-10-27T18:44:08.404Z,23.45
2022-10-27T18:47:10.949Z,26.92
2022-10-27T18:50:13.342Z,31.30
2022-10-27T18:53:16.258Z,53.67
2022-10-27T18:56:18.652Z,34.20
2022-10-27T18:59:21.209Z,33.42
2022-10-27T19:02:23.604Z,27.60
2022-10-27T19:05:26.246Z,29.15
2022-10-27T19:08:29.302Z,24.92
2022-10-27T19:11:35.220Z,24.80
2022-10-27T19:14:37.684Z,25.30
2022-10-27T19:17:41.108Z,24.80
2022-10-27T19:20:46.418Z,24.40
2022-10-27T19:23:58.130Z,32.25
2022-10-27T19:27:03.475Z,28.55
2022-10-27T19:30:11.189Z,32.60
2022-10-27T19:33:19.439Z,27.90
2022-10-27T19:36:29.894Z,29.37
2022-10-27T19:39:44.508Z,29.23
2022-10-27T19:42:47.064Z,28.83
2022-10-27T19:45:50.431Z,29.45
2022-10-27T19:48:55.079Z,28.48
2022-10-27T19:51:57.755Z,27.87
2022-10-27T19:55:00.321Z,26.58
2022-10-27T19:58:03.360Z,25.45
2022-10-27T20:01:16.876Z,31.98
2022-10-27T20:07:22.783Z,30.30
2022-10-27T20:10:25.416Z,32.05
2022-10-27T20:13:27.649Z,30.40
2022-10-27T20:16:33.733Z,28.50
2022-10-27T20:19:38.238Z,33.70
2022-10-27T20:22:41.001Z,31.35
2022-10-27T20:25:43.273Z,29.10
2022-10-27T20:28:45.851Z,27.73
2022-10-27T20:31:48.851Z,29.05
2022-10-27T20:34:51.952Z,29.33
2022-10-27T20:37:54.211Z,29.67
2022-10-27T20:40:56.788Z,28.85
2022-10-27T20:44:00.643Z,28.10
2022-10-27T20:47:03.222Z,26.85
2022-10-27T20:50:06.067Z,26.98
2022-10-27T20:53:08.618Z,33.10
2022-10-27T20:56:16.205Z,31.23
2022-10-27T20:59:21.278Z,26.70
2022-10-27T21:02:26.390Z,27.83
2022-10-27T21:05:29.023Z,26.92
2022-10-27T21:08:31.332Z,27.98
2022-10-27T21:11:34.760Z,27.23
2022-10-27T21:14:37.018Z,30.10
2022-10-27T21:17:39.601Z,32.45
2022-10-27T21:20:41.885Z,29.25
2022-10-27T21:23:44.369Z,32.67
2022-10-27T21:26:46.699Z,28.75
2022-10-27T21:29:49.202Z,27.75
2022-10-27T21:32:53.505Z,28.27
2022-10-27T21:35:56.169Z,27.50
2022-10-27T21:38:58.471Z,32.50
2022-10-27T21:42:00.976Z,28.42
2022-10-27T21:45:03.627Z,32.05
2022-10-27T21:48:06.580Z,30.98
2022-10-27T21:51:11.707Z,33.42
2022-10-27T21:54:14.299Z,27.60
2022-10-27T21:57:16.600Z,23.65
2022-10-27T22:00:19.234Z,23.58
2022-10-27T22:03:21.835Z,30.67
2022-10-27T22:06:33.075Z,24.92
2022-10-27T22:09:35.587Z,24.70
2022-10-27T22:12:37.900Z,25.92
2022-10-27T22:15:40.408Z,27.17
2022-10-27T22:18:46.763Z,25.45
2022-10-27T22:21:50.540Z,26.70
2022-10-27T22:24:53.393Z,28.50
2022-10-27T22:27:55.919Z,26.13
2022-10-27T22:30:58.225Z,23.95
2022-10-27T22:34:01.993Z,25.10
2022-10-27T22:37:04.250Z,28.48
2022-10-27T22:40:07.731Z,29.45
2022-10-27T22:43:10.037Z,25.25
2022-10-27T22:46:21.684Z,24.48
2022-10-27T22:49:23.986Z,32.20
2022-10-27T22:52:26.436Z,26.20
2022-10-27T22:55:28.697Z,25.52
2022-10-27T22:58:31.372Z,24.65
2022-10-27T23:01:37.318Z,25.07
2022-10-27T23:04:39.876Z,28.45
2022-10-27T23:07:42.102Z,23.60
2022-10-27T23:10:44.681Z,30.77
2022-10-27T23:13:46.982Z,27.08
2022-10-27T23:16:49.444Z,26.50
2022-10-27T23:19:52.230Z,28.00
2022-10-27T23:22:55.039Z,23.50
2022-10-27T23:25:58.308Z,22.87
2022-10-27T23:29:03.171Z,25.73
2022-10-27T23:32:05.897Z,29.50
2022-10-27T23:35:08.738Z,28.60
2022-10-27T23:38:10.983Z,26.35
2022-10-27T23:41:13.706Z,27.27
2022-10-27T23:44:15.956Z,32.40
2022-10-27T23:47:18.439Z,27.45
2022-10-27T23:50:20.886Z,22.83
2022-10-27T23:53:23.584Z,23.42
2022-10-27T23:56:26.529Z,29.02
2022-10-27T23:59:29.089Z,26.70
